createdAt,value
2018-05-26T00:00:50.928Z,41.24
2018-05-26T00:03:23.556Z,41.16
2018-05-26T00:05:56.272Z,41.06
2018-05-26T00:08:28.865Z,41.82
2018-05-26T00:11:01.424Z,41.95
2018-05-26T00:13:34.236Z,43.22
2018-05-26T00:16:06.833Z,43.27
2018-05-26T00:18:39.807Z,44.19
2018-05-26T00:21:12.450Z,44.50
2018-05-26T00:23:45.036Z,43.72
2018-05-26T00:26:17.579Z,43.67
2018-05-26T00:28:50.154Z,43.64
2018-05-26T00:31:22.732Z,43.74
2018-05-26T00:33:55.315Z,43.45
2018-05-26T00:36:27.887Z,44.04
2018-05-26T00:39:00.484Z,43.96
2018-05-26T00:41:33.034Z,44.07
2018-05-26T00:44:05.607Z,44.48
2018-05-26T00:46:38.179Z,44.53
2018-05-26T00:49:10.789Z,44.95
2018-05-26T00:51:43.371Z,44.82
2018-05-26T00:54:15.946Z,44.55
2018-05-26T00:56:48.522Z,44.91
2018-05-26T00:59:21.102Z,44.92
2018-05-26T01:01:53.679Z,45.37
2018-05-26T01:04:26.263Z,45.85
2018-05-26T01:06:58.836Z,45.75
2018-05-26T01:09:31.412Z,46.47
2018-05-26T01:12:03.990Z,46.25
2018-05-26T01:14:36.590Z,46.23
2018-05-26T01:17:09.182Z,46.19
2018-05-26T01:19:41.744Z,46.64
2018-05-26T01:22:14.349Z,46.77
2018-05-26T01:24:46.909Z,46.78
2018-05-26T01:27:19.485Z,46.92
2018-05-26T01:29:52.059Z,47.10
2018-05-26T01:32:24.648Z,46.90
2018-05-26T01:34:57.204Z,47.05
2018-05-26T01:37:29.802Z,47.29
2018-05-26T01:40:02.360Z,47.55
2018-05-26T01:42:34.933Z,47.58
2018-05-26T01:45:07.504Z,48.04
2018-05-26T01:47:40.070Z,46.55
2018-05-26T01:50:12.634Z,46.50
2018-05-26T01:52:45.218Z,46.44
2018-05-26T01:55:17.770Z,46.65
2018-05-26T01:57:50.358Z,46.48
2018-05-26T02:00:22.921Z,46.87
2018-05-26T02:02:55.489Z,47.46
2018-05-26T02:05:28.059Z,47.34
2018-05-26T02:08:00.667Z,48.22
2018-05-26T02:10:33.205Z,47.98
2018-05-26T02:13:05.771Z,48.23
2018-05-26T02:15:38.331Z,47.84
2018-05-26T02:18:10.919Z,48.53
2018-05-26T02:20:43.479Z,48.09
2018-05-26T02:23:16.067Z,47.82
2018-05-26T02:25:48.630Z,48.04
2018-05-26T02:28:21.225Z,47.77
2018-05-26T02:30:53.791Z,48.13
2018-05-26T02:33:26.380Z,47.98
2018-05-26T02:35:58.958Z,47.93
2018-05-26T02:38:31.532Z,47.93
2018-05-26T02:41:04.088Z,48.80
2018-05-26T02:43:36.671Z,48.07
2018-05-26T02:46:09.239Z,48.25
2018-05-26T02:48:41.826Z,48.27
2018-05-26T02:51:14.412Z,48.43
2018-05-26T02:53:46.991Z,48.08
2018-05-26T02:56:19.554Z,48.23
2018-05-26T02:58:52.180Z,48.50
2018-05-26T03:01:24.746Z,48.69
2018-05-26T03:03:56.784Z,48.62
2018-05-26T03:06:35.177Z,48.54
2018-05-26T03:09:13.483Z,48.79
2018-05-26T03:11:51.627Z,48.65
2018-05-26T03:14:29.900Z,48.93
2018-05-26T03:17:02.465Z,48.62
2018-05-26T03:19:35.057Z,48.47
2018-05-26T03:22:07.627Z,48.39
2018-05-26T03:24:40.262Z,49.73
2018-05-26T03:27:12.839Z,49.04
2018-05-26T03:29:45.452Z,49.26
2018-05-26T03:32:18.010Z,49.14
2018-05-26T03:34:50.605Z,49.62
2018-05-26T03:37:23.182Z,49.67
2018-05-26T03:39:55.764Z,49.58
2018-05-26T03:42:28.371Z,49.56
2018-05-26T03:45:00.980Z,49.64
2018-05-26T03:47:33.546Z,49.37
2018-05-26T03:50:06.150Z,49.73
2018-05-26T03:52:38.719Z,49.71
2018-05-26T03:58:28.071Z,49.33
2018-05-26T04:01:00.570Z,49.46
2018-05-26T04:03:33.095Z,49.65
2018-05-26T04:06:05.621Z,49.47
2018-05-26T04:08:38.905Z,49.55
2018-05-26T04:11:11.420Z,49.67
2018-05-26T04:13:43.952Z,49.90
2018-05-26T04:16:16.472Z,49.78
2018-05-26T04:18:48.997Z,49.34
2018-05-26T04:21:21.506Z,49.67
2018-05-26T04:23:54.037Z,48.77
2018-05-26T04:26:26.540Z,49.12
2018-05-26T04:28:59.065Z,48.81
2018-05-26T04:31:31.561Z,48.64
2018-05-26T04:34:04.084Z,48.59
2018-05-26T04:36:36.592Z,48.80
2018-05-26T04:39:09.612Z,48.20
2018-05-26T04:41:42.125Z,47.91
2018-05-26T04:44:14.645Z,47.69
2018-05-26T04:46:47.167Z,47.46
2018-05-26T04:49:19.698Z,46.95
2018-05-26T04:51:52.193Z,46.99
2018-05-26T04:54:24.708Z,46.70
2018-05-26T04:56:57.199Z,46.41
2018-05-26T04:59:29.721Z,46.33
2018-05-26T05:02:02.246Z,45.73
2018-05-26T05:04:34.780Z,45.84
2018-05-26T05:07:07.281Z,45.54
2018-05-26T05:09:40.598Z,45.25
2018-05-26T05:12:13.109Z,44.63
2018-05-26T05:14:45.637Z,44.66
2018-05-26T05:17:18.145Z,44.51
2018-05-26T05:19:50.679Z,44.90
2018-05-26T05:22:23.189Z,45.31
2018-05-26T05:24:55.743Z,45.27
2018-05-26T05:27:28.252Z,44.71
2018-05-26T05:30:00.780Z,44.37
2018-05-26T05:32:33.292Z,43.92
2018-05-26T05:35:05.828Z,43.99
2018-05-26T05:37:38.871Z,44.40
2018-05-26T05:40:11.393Z,43.63
2018-05-26T05:42:43.895Z,44.15
2018-05-26T05:45:16.434Z,44.93
2018-05-26T05:47:48.940Z,44.93
2018-05-26T05:50:21.469Z,43.83
2018-05-26T05:52:53.976Z,43.68
2018-05-26T05:55:26.501Z,43.38
2018-05-26T05:57:58.996Z,43.17
2018-05-26T06:00:31.522Z,42.81
2018-05-26T06:03:04.031Z,42.55
2018-05-26T06:05:36.574Z,43.19
2018-05-26T06:08:09.473Z,43.06
2018-05-26T06:10:42.006Z,42.43
2018-05-26T06:13:14.508Z,42.44
2018-05-26T06:15:47.090Z,42.62
2018-05-26T06:18:19.593Z,42.54
2018-05-26T06:20:52.119Z,42.29
2018-05-26T06:23:24.624Z,42.31
2018-05-26T06:25:57.161Z,41.61
2018-05-26T06:28:29.673Z,41.60
2018-05-26T06:31:02.214Z,41.61
2018-05-26T06:33:34.720Z,41.71
2018-05-26T06:36:07.299Z,42.89
2018-05-26T06:38:40.937Z,41.78
2018-05-26T06:41:13.462Z,41.40
2018-05-26T06:43:45.971Z,41.37
2018-05-26T06:46:18.501Z,40.85
2018-05-26T06:48:51.003Z,40.50
2018-05-26T06:51:23.561Z,40.04
2018-05-26T06:53:56.069Z,40.28
2018-05-26T06:56:28.593Z,40.31
2018-05-26T06:59:01.116Z,40.63
2018-05-26T07:01:33.666Z,40.05
2018-05-26T07:04:06.192Z,39.71
2018-05-26T07:06:39.095Z,39.94
2018-05-26T07:09:11.596Z,39.81
2018-05-26T07:11:44.122Z,40.56
2018-05-26T07:14:16.628Z,40.78
2018-05-26T07:16:49.158Z,39.96
2018-05-26T07:19:21.669Z,39.64
2018-05-26T07:21:54.212Z,39.34
2018-05-26T07:24:26.726Z,39.34
2018-05-26T07:26:59.256Z,38.68
2018-05-26T07:29:31.780Z,38.43
2018-05-26T07:32:04.309Z,38.99
2018-05-26T07:34:36.824Z,38.96
2018-05-26T07:37:10.182Z,38.28
2018-05-26T07:39:42.685Z,38.27
2018-05-26T07:42:15.208Z,38.43
2018-05-26T07:44:47.748Z,38.13
2018-05-26T07:47:20.279Z,37.84
2018-05-26T07:49:52.793Z,37.05
2018-05-26T07:52:25.315Z,36.94
2018-05-26T07:54:57.844Z,37.12
2018-05-26T07:57:30.362Z,36.73
2018-05-26T08:00:02.910Z,36.16
2018-05-26T08:02:35.413Z,36.38
2018-05-26T08:05:07.949Z,36.47
2018-05-26T08:07:40.448Z,36.29
2018-05-26T08:10:12.973Z,36.26
2018-05-26T08:12:45.485Z,36.20
2018-05-26T08:15:18.014Z,36.12
2018-05-26T08:17:50.522Z,35.20
2018-05-26T08:20:23.093Z,34.41
2018-05-26T08:22:55.603Z,34.69
2018-05-26T08:25:28.232Z,34.50
2018-05-26T08:28:00.804Z,34.71
2018-05-26T08:30:33.445Z,34.71
2018-05-26T08:33:05.942Z,34.65
2018-05-26T08:35:38.729Z,33.91
2018-05-26T08:38:11.701Z,33.48
2018-05-26T08:40:44.289Z,33.63
2018-05-26T08:43:16.794Z,33.88
2018-05-26T08:45:49.417Z,32.11
2018-05-26T08:48:21.924Z,31.41
2018-05-26T08:50:54.466Z,29.68
2018-05-26T08:53:27.289Z,29.38
2018-05-26T08:55:59.812Z,29.71
2018-05-26T08:58:32.376Z,29.24
2018-05-26T09:01:05.153Z,28.55
2018-05-26T09:03:37.941Z,26.66
2018-05-26T09:06:10.472Z,26.62
2018-05-26T09:08:43.081Z,24.94
2018-05-26T09:11:15.783Z,23.87
2018-05-26T09:13:48.247Z,24.43
2018-05-26T09:16:20.789Z,25.08
2018-05-26T09:18:53.532Z,25.65
2018-05-26T09:21:26.348Z,25.59
2018-05-26T09:23:58.882Z,27.17
2018-05-26T09:26:31.428Z,27.83
2018-05-26T09:29:04.351Z,28.42
2018-05-26T09:31:36.904Z,28.01
2018-05-26T09:34:10.239Z,28.55
2018-05-26T09:36:42.777Z,28.63
2018-05-26T09:39:15.306Z,28.74
2018-05-26T09:41:47.830Z,28.77
2018-05-26T09:44:20.346Z,28.46
2018-05-26T09:46:52.892Z,28.59
2018-05-26T09:49:25.420Z,28.38
2018-05-26T09:51:57.949Z,28.95
2018-05-26T09:54:30.445Z,28.64
2018-05-26T09:57:03.303Z,29.00
2018-05-26T09:59:35.888Z,29.53
2018-05-26T10:02:09.373Z,29.47
2018-05-26T10:04:41.882Z,29.07
2018-05-26T10:07:14.778Z,28.27
2018-05-26T10:09:47.807Z,28.25
2018-05-26T10:12:20.418Z,27.75
2018-05-26T10:14:52.928Z,27.85
2018-05-26T10:17:25.459Z,28.08
2018-05-26T10:19:58.109Z,27.22
2018-05-26T10:22:30.664Z,27.34
2018-05-26T10:25:03.176Z,26.21
2018-05-26T10:27:35.795Z,26.94
2018-05-26T10:30:09.038Z,25.69
2018-05-26T10:32:41.726Z,25.89
2018-05-26T10:35:14.310Z,25.90
2018-05-26T10:37:46.853Z,25.94
2018-05-26T10:40:19.381Z,25.99
2018-05-26T10:42:51.914Z,24.95
2018-05-26T10:45:36.216Z,25.65
2018-05-26T10:48:09.027Z,25.13
2018-05-26T10:50:41.532Z,25.91
2018-05-26T10:53:14.061Z,25.72
2018-05-26T10:55:47.032Z,25.37
2018-05-26T10:58:19.567Z,24.58
2018-05-26T11:00:52.105Z,24.14
2018-05-26T11:03:24.773Z,24.13
2018-05-26T11:05:57.308Z,22.29
2018-05-26T11:08:29.814Z,21.28
2018-05-26T11:11:02.523Z,20.13
2018-05-26T11:13:35.145Z,19.48
2018-05-26T11:16:08.077Z,20.21
2018-05-26T11:18:40.456Z,20.68
2018-05-26T11:21:12.988Z,21.53
2018-05-26T11:23:45.715Z,20.69
2018-05-26T11:26:18.324Z,21.17
2018-05-26T11:28:50.852Z,21.57
2018-05-26T11:31:23.408Z,21.93
2018-05-26T11:33:55.936Z,20.95
2018-05-26T11:36:28.456Z,20.86
2018-05-26T11:39:00.987Z,21.95
2018-05-26T11:41:33.670Z,21.04
2018-05-26T11:44:06.221Z,21.06
2018-05-26T11:46:39.179Z,19.88
2018-05-26T11:49:11.675Z,20.70
2018-05-26T11:51:44.233Z,20.91
2018-05-26T11:54:16.735Z,20.21
2018-05-26T11:56:49.620Z,20.98
2018-05-26T11:59:22.221Z,21.05
2018-05-26T12:01:54.804Z,21.64
2018-05-26T12:04:27.314Z,20.41
2018-05-26T12:06:59.935Z,20.79
2018-05-26T12:09:32.451Z,20.13
2018-05-26T12:12:05.039Z,20.00
2018-05-26T12:14:39.269Z,19.95
2018-05-26T12:17:11.805Z,20.87
2018-05-26T12:19:44.523Z,19.63
2018-05-26T12:22:17.128Z,20.99
2018-05-26T12:24:49.635Z,20.71
2018-05-26T12:27:22.179Z,21.03
2018-05-26T12:29:54.769Z,19.64
2018-05-26T12:32:27.308Z,20.62
2018-05-26T12:34:59.814Z,21.24
2018-05-26T12:37:32.357Z,22.02
2018-05-26T12:40:04.909Z,21.70
2018-05-26T12:42:39.234Z,21.70
2018-05-26T12:45:11.830Z,21.69
2018-05-26T12:47:44.426Z,22.00
2018-05-26T12:50:16.957Z,21.45
2018-05-26T12:52:49.686Z,19.92
2018-05-26T12:55:22.190Z,20.97
2018-05-26T13:00:57.912Z,21.56
2018-05-26T13:03:30.788Z,20.94
2018-05-26T13:06:03.340Z,21.36
2018-05-26T13:08:35.886Z,20.59
2018-05-26T13:11:09.749Z,21.73
2018-05-26T13:13:42.272Z,21.67
2018-05-26T13:16:14.785Z,21.60
2018-05-26T13:18:47.360Z,20.76
2018-05-26T13:21:20.180Z,21.65
2018-05-26T13:23:52.728Z,21.16
2018-05-26T13:26:25.266Z,21.71
2018-05-26T13:28:57.848Z,20.28
2018-05-26T13:31:30.843Z,18.52
2018-05-26T13:34:03.413Z,20.49
2018-05-26T13:36:35.939Z,22.90
2018-05-26T13:39:09.149Z,20.86
2018-05-26T13:41:41.690Z,20.48
2018-05-26T13:44:18.399Z,18.71
2018-05-26T13:46:50.917Z,18.96
2018-05-26T13:49:23.440Z,16.68
2018-05-26T13:51:57.516Z,16.66
2018-05-26T13:54:30.041Z,17.37
2018-05-26T13:57:02.656Z,18.92
2018-05-26T13:59:35.190Z,16.91
2018-05-26T14:02:08.398Z,17.33
2018-05-26T14:04:40.909Z,18.93
2018-05-26T14:07:13.437Z,19.83
2018-05-26T14:09:46.001Z,19.64
2018-05-26T14:12:19.056Z,19.74
2018-05-26T14:14:51.644Z,19.77
2018-05-26T14:17:24.200Z,19.97
2018-05-26T14:19:56.716Z,20.96
2018-05-26T14:22:29.255Z,22.52
2018-05-26T14:25:02.251Z,20.58
2018-05-26T14:27:34.842Z,20.70
2018-05-26T14:30:07.458Z,20.87
2018-05-26T14:32:40.461Z,20.04
2018-05-26T14:35:13.704Z,19.55
2018-05-26T14:37:46.305Z,18.82
2018-05-26T14:40:19.067Z,19.67
2018-05-26T14:42:52.012Z,19.09
2018-05-26T14:45:24.859Z,18.68
2018-05-26T14:47:57.730Z,18.09
2018-05-26T14:50:30.637Z,18.10
2018-05-26T14:53:03.185Z,18.89
2018-05-26T14:55:35.695Z,19.40
2018-05-26T14:58:09.232Z,19.18
2018-05-26T15:00:41.737Z,18.33
2018-05-26T15:03:14.465Z,19.37
2018-05-26T15:05:46.994Z,20.96
2018-05-26T15:08:19.562Z,20.73
2018-05-26T15:10:52.090Z,20.28
2018-05-26T15:13:24.897Z,20.67
2018-05-26T15:15:57.389Z,20.65
2018-05-26T15:18:30.109Z,20.88
2018-05-26T15:21:02.647Z,21.20
2018-05-26T15:23:35.195Z,22.60
2018-05-26T15:26:07.916Z,23.41
2018-05-26T15:28:40.469Z,23.75
2018-05-26T15:31:12.984Z,24.73
2018-05-26T15:33:45.509Z,26.17
2018-05-26T15:36:18.021Z,25.67
2018-05-26T15:38:50.615Z,27.02
2018-05-26T15:41:23.159Z,26.29
2018-05-26T15:43:55.696Z,26.40
2018-05-26T15:46:28.216Z,26.78
2018-05-26T15:49:00.959Z,26.52
2018-05-26T15:51:33.506Z,26.60
2018-05-26T15:54:06.143Z,26.83
2018-05-26T15:56:38.887Z,26.54
2018-05-26T15:59:11.427Z,26.48
2018-05-26T16:01:43.940Z,26.25
2018-05-26T16:04:16.465Z,27.62
2018-05-26T16:06:48.980Z,26.70
2018-05-26T16:09:21.519Z,25.68
2018-05-26T16:11:54.039Z,26.07
2018-05-26T16:14:26.655Z,25.52
2018-05-26T16:16:59.198Z,26.26
2018-05-26T16:19:31.851Z,26.86
2018-05-26T16:22:04.390Z,26.41
2018-05-26T16:24:36.957Z,25.91
2018-05-26T16:27:10.432Z,26.03
2018-05-26T16:29:42.973Z,25.84
2018-05-26T16:32:15.561Z,25.90
2018-05-26T16:34:48.098Z,25.90
2018-05-26T16:37:20.620Z,26.14
2018-05-26T16:39:53.453Z,26.17
2018-05-26T16:42:25.973Z,25.13
2018-05-26T16:44:58.497Z,25.16
2018-05-26T16:47:31.112Z,24.68
2018-05-26T16:50:03.702Z,24.94
2018-05-26T16:52:36.229Z,25.08
2018-05-26T16:55:09.102Z,25.45
2018-05-26T16:57:41.643Z,26.88
2018-05-26T17:00:14.274Z,26.15
2018-05-26T17:02:46.852Z,26.20
2018-05-26T17:05:19.369Z,26.45
2018-05-26T17:07:51.929Z,25.99
2018-05-26T17:10:24.456Z,26.03
2018-05-26T17:12:57.262Z,26.17
2018-05-26T17:15:29.802Z,26.43
2018-05-26T17:18:02.766Z,26.49
2018-05-26T17:20:35.349Z,26.45
2018-05-26T17:23:08.971Z,26.37
2018-05-26T17:25:41.527Z,26.56
2018-05-26T17:28:14.376Z,27.55
2018-05-26T17:30:46.953Z,26.19
2018-05-26T17:33:19.699Z,26.41
2018-05-26T17:35:52.257Z,27.10
2018-05-26T17:38:25.139Z,26.62
2018-05-26T17:40:57.746Z,26.23
2018-05-26T17:43:30.722Z,26.52
2018-05-26T17:46:03.233Z,27.89
2018-05-26T17:48:35.948Z,27.96
2018-05-26T17:51:08.833Z,27.72
2018-05-26T17:53:41.562Z,28.06
2018-05-26T17:56:14.120Z,28.01
2018-05-26T17:58:46.660Z,30.79
2018-05-26T18:01:19.181Z,28.92
2018-05-26T18:03:52.320Z,28.78
2018-05-26T18:06:24.901Z,29.62
2018-05-26T18:08:57.421Z,30.49
2018-05-26T18:11:30.362Z,29.72
2018-05-26T18:14:02.921Z,29.88
2018-05-26T18:16:35.437Z,29.35
2018-05-26T18:19:07.957Z,30.05
2018-05-26T18:21:40.455Z,29.77
2018-05-26T18:24:12.972Z,29.76
2018-05-26T18:26:45.486Z,29.12
2018-05-26T18:29:18.034Z,29.26
2018-05-26T18:31:50.529Z,29.29
2018-05-26T18:34:23.075Z,31.34
2018-05-26T18:36:55.581Z,29.59
2018-05-26T18:39:29.198Z,29.77
2018-05-26T18:42:01.712Z,29.77
2018-05-26T18:44:34.652Z,29.87
2018-05-26T18:47:07.220Z,30.86
2018-05-26T18:49:40.456Z,30.97
2018-05-26T18:52:12.955Z,32.04
2018-05-26T18:54:45.496Z,32.68
2018-05-26T18:57:18.003Z,31.70
2018-05-26T18:59:57.515Z,31.64
2018-05-26T19:02:30.029Z,32.53
2018-05-26T19:05:02.581Z,32.62
2018-05-26T19:07:35.096Z,32.95
2018-05-26T19:10:07.865Z,33.18
2018-05-26T19:12:40.387Z,33.31
2018-05-26T19:15:12.924Z,33.65
2018-05-26T19:17:45.532Z,34.73
2018-05-26T19:20:18.075Z,34.35
2018-05-26T19:22:50.596Z,34.46
2018-05-26T19:25:23.124Z,34.50
2018-05-26T19:27:55.634Z,34.78
2018-05-26T19:30:28.148Z,34.76
2018-05-26T19:33:00.652Z,34.79
2018-05-26T19:35:33.177Z,34.84
2018-05-26T19:38:05.692Z,35.14
2018-05-26T19:40:38.961Z,35.94
2018-05-26T19:43:11.500Z,35.64
2018-05-26T19:45:44.031Z,37.43
2018-05-26T19:48:16.550Z,37.75
2018-05-26T19:50:49.072Z,36.65
2018-05-26T19:53:21.589Z,37.17
2018-05-26T19:55:54.122Z,37.07
2018-05-26T19:58:26.628Z,37.42
2018-05-26T20:00:59.149Z,37.50
2018-05-26T20:03:31.670Z,38.08
2018-05-26T20:06:04.215Z,37.84
2018-05-26T20:08:36.725Z,37.94
2018-05-26T20:11:09.944Z,37.90
2018-05-26T20:13:42.473Z,38.02
2018-05-26T20:16:15.002Z,38.68
2018-05-26T20:18:47.526Z,38.16
2018-05-26T20:21:20.029Z,38.69
2018-05-26T20:23:52.557Z,38.36
2018-05-26T20:26:25.062Z,38.35
2018-05-26T20:28:57.591Z,38.75
2018-05-26T20:31:30.096Z,38.52
2018-05-26T20:34:02.642Z,38.58
2018-05-26T20:36:35.152Z,39.17
2018-05-26T20:39:07.844Z,39.91
2018-05-26T20:41:40.352Z,40.11
2018-05-26T20:44:12.893Z,39.72
2018-05-26T20:46:45.405Z,40.58
2018-05-26T20:49:17.954Z,39.91
2018-05-26T20:51:50.456Z,39.88
2018-05-26T20:54:22.984Z,40.49
2018-05-26T20:56:55.484Z,41.02
2018-05-26T20:59:28.032Z,40.36
2018-05-26T21:02:00.566Z,40.89
2018-05-26T21:04:33.083Z,40.98
2018-05-26T21:07:05.592Z,40.64
2018-05-26T21:09:38.599Z,40.83
2018-05-26T21:12:11.118Z,41.26
2018-05-26T21:14:43.641Z,41.61
2018-05-26T21:17:16.184Z,41.91
2018-05-26T21:19:48.718Z,42.15
2018-05-26T21:22:21.221Z,42.10
2018-05-26T21:24:53.748Z,44.44
2018-05-26T21:27:26.254Z,43.59
2018-05-26T21:29:58.779Z,43.53
2018-05-26T21:32:31.276Z,42.85
2018-05-26T21:35:03.838Z,43.47
2018-05-26T21:37:36.337Z,43.05
2018-05-26T21:40:08.871Z,43.33
2018-05-26T21:42:41.368Z,43.51
2018-05-26T21:45:13.894Z,43.88
2018-05-26T21:47:46.400Z,43.95
2018-05-26T21:50:18.933Z,44.20
2018-05-26T21:52:51.525Z,44.33
2018-05-26T21:55:24.053Z,44.30
2018-05-26T21:57:56.590Z,44.89
2018-05-26T22:00:29.109Z,44.73
2018-05-26T22:03:01.798Z,44.92
2018-05-26T22:05:34.357Z,44.68
2018-05-26T22:08:06.882Z,45.16
2018-05-26T22:10:40.464Z,45.80
2018-05-26T22:13:12.973Z,45.65
2018-05-26T22:15:45.500Z,45.76
2018-05-26T22:18:18.060Z,45.79
2018-05-26T22:20:50.549Z,46.03
2018-05-26T22:23:23.221Z,46.11
2018-05-26T22:25:55.761Z,46.31
2018-05-26T22:28:28.275Z,46.32
2018-05-26T22:31:00.898Z,46.38
2018-05-26T22:33:33.441Z,46.53
2018-05-26T22:36:06.385Z,46.38
2018-05-26T22:38:38.933Z,46.63
2018-05-26T22:41:11.470Z,47.38
2018-05-26T22:43:43.976Z,47.28
2018-05-26T22:46:16.509Z,47.67
2018-05-26T22:48:49.015Z,47.82
2018-05-26T22:51:21.544Z,48.22
2018-05-26T22:53:54.032Z,48.10
2018-05-26T22:56:26.559Z,48.05
2018-05-26T22:58:59.099Z,47.94
2018-05-26T23:01:31.617Z,47.90
2018-05-26T23:04:04.118Z,49.01
2018-05-26T23:06:36.659Z,48.27
2018-05-26T23:09:09.932Z,48.01
2018-05-26T23:11:42.459Z,48.39
2018-05-26T23:14:14.970Z,48.82
2018-05-26T23:16:47.501Z,48.97
2018-05-26T23:19:20.015Z,49.57
2018-05-26T23:21:52.551Z,49.75
2018-05-26T23:24:25.065Z,49.85
2018-05-26T23:26:57.621Z,49.70
2018-05-26T23:29:30.140Z,50.29
2018-05-26T23:32:02.681Z,50.03
2018-05-26T23:34:35.236Z,49.55
2018-05-26T23:37:08.423Z,49.42
2018-05-26T23:39:40.953Z,50.10
2018-05-26T23:42:13.475Z,49.84
2018-05-26T23:44:45.980Z,49.93
2018-05-26T23:47:18.529Z,50.06
2018-05-26T23:49:51.075Z,49.80
2018-05-26T23:52:23.582Z,50.36
2018-05-26T23:54:56.122Z,50.31
2018-05-26T23:57:28.641Z,50.10
